Time;durP1;ratioP1;P1;durP2;ratioP2;P2;SDS_P1;SDS_P2;PMS_P1;PMS_P2;Temp;Humidity;BMP_temperature;BMP_pressure;BME280_temperature;BME280_humidity;BME280_pressure;Samples;Min_cycle;Max_cycle;Signal;HPM_P1;HPM_P2
2022/05/17 00:01:19;;;;;;;8.27;4.10;;;14.90;99.90;;;;;;4957489;28;19922;-62
2022/05/17 00:03:47;;;;;;;7.25;4.35;;;14.90;99.90;;;;;;4957374;28;20502;-61
2022/05/17 00:06:14;;;;;;;14.30;5.40;;;14.80;99.90;;;;;;4957402;28;20047;-62
2022/05/17 00:08:41;;;;;;;9.45;4.95;;;14.80;99.90;;;;;;4955535;28;20070;-62
2022/05/17 00:11:10;;;;;;;;;;;14.80;99.90;;;;;;4957664;28;20359;-61
2022/05/17 00:13:37;;;;;;;17.55;4.82;;;14.70;99.90;;;;;;4956756;28;19930;-61
2022/05/17 00:16:04;;;;;;;14.65;5.10;;;14.70;99.90;;;;;;4961325;28;20034;-61
2022/05/17 00:18:33;;;;;;;8.88;4.78;;;14.70;99.90;;;;;;4974535;28;20069;-62
2022/05/17 00:21:00;;;;;;;6.95;4.53;;;14.60;99.90;;;;;;4974750;28;20574;-62
2022/05/17 00:23:28;;;;;;;7.32;4.00;;;14.60;99.90;;;;;;4975132;28;20050;-62
2022/05/17 00:25:55;;;;;;;5.65;4.25;;;14.60;99.90;;;;;;4975845;28;20034;-62
2022/05/17 00:28:23;;;;;;;6.60;4.13;;;14.60;99.90;;;;;;4974776;28;20046;-61
2022/05/17 00:30:50;;;;;;;8.73;4.38;;;14.60;99.90;;;;;;4974932;28;20488;-62
2022/05/17 00:33:17;;;;;;;9.80;4.60;;;14.60;99.90;;;;;;4974559;28;20075;-61
2022/05/17 00:35:45;;;;;;;13.70;5.72;;;14.60;99.90;;;;;;4975810;28;20046;-62
2022/05/17 00:38:13;;;;;;;9.82;4.72;;;14.50;99.90;;;;;;4975907;28;20949;-61
2022/05/17 00:40:41;;;;;;;8.63;4.57;;;14.50;99.90;;;;;;4969874;28;20046;-62
2022/05/17 00:43:09;;;;;;;14.73;4.85;;;14.40;99.90;;;;;;4975414;28;20081;-61
2022/05/17 00:45:45;;;;;;;8.43;4.90;;;14.40;99.90;;;;;;4975769;28;20047;-62
2022/05/17 00:48:13;;;;;;;8.73;4.53;;;14.50;99.90;;;;;;4981005;28;20045;-62
2022/05/17 00:50:50;;;;;;;7.22;4.15;;;14.50;99.90;;;;;;4986461;28;20595;-62
2022/05/17 00:53:18;;;;;;;5.28;3.70;;;14.40;99.90;;;;;;4986198;28;20042;-62
2022/05/17 00:55:58;;;;;;;4.35;3.95;;;14.40;99.90;;;;;;4973865;28;20038;-62
2022/05/17 00:58:49;;;;;;;11.27;3.88;;;14.40;99.90;;;;;;4973626;28;20050;-62
2022/05/17 01:01:20;;;;;;;13.82;5.55;;;14.30;99.90;;;;;;4975688;28;20034;-61
2022/05/17 01:03:57;;;;;;;9.73;4.60;;;14.30;99.90;;;;;;4973421;28;20277;-61
2022/05/17 01:06:32;;;;;;;10.13;4.63;;;14.30;99.90;;;;;;4975705;28;20125;-61
2022/05/17 01:08:59;;;;;;;16.40;5.00;;;14.20;99.90;;;;;;4973820;28;20042;-61
2022/05/17 01:11:26;;;;;;;12.07;5.30;;;14.20;99.90;;;;;;4973957;28;20042;-62
2022/05/17 01:16:38;;;;;;;10.57;4.40;;;14.10;99.90;;;;;;4974662;28;19930;-61
2022/05/17 01:19:07;;;;;;;5.03;3.63;;;14.10;99.90;;;;;;4975116;28;20042;-61
2022/05/17 01:21:34;;;;;;;10.65;4.15;;;14.10;99.90;;;;;;4973597;28;20129;-62
2022/05/17 01:24:01;;;;;;;5.72;3.83;;;14.10;99.90;;;;;;4975123;28;20042;-61
2022/05/17 01:26:29;;;;;;;;;;;14.10;99.90;;;;;;4975438;28;20046;-61
2022/05/17 01:28:56;;;;;;;11.00;3.53;;;14.10;99.90;;;;;;4974447;28;20212;-61
2022/05/17 01:31:23;;;;;;;;;;;14.10;99.90;;;;;;4975674;28;20126;-61
2022/05/17 01:33:50;;;;;;;8.38;3.35;;;14.10;99.90;;;;;;4975251;28;19926;-61
2022/05/17 01:36:21;;;;;;;12.40;3.80;;;14.20;99.90;;;;;;4975288;28;20556;-62
2022/05/17 01:38:50;;;;;;;5.10;3.20;;;14.20;99.90;;;;;;4974743;28;20141;-61
2022/05/17 01:41:21;;;;;;;6.75;3.83;;;14.20;99.90;;;;;;4972897;28;20149;-62
2022/05/17 01:43:50;;;;;;;9.25;3.75;;;14.20;99.90;;;;;;4973965;28;20053;-62
2022/05/17 01:46:19;;;;;;;7.30;3.50;;;14.20;99.90;;;;;;4974101;28;20042;-62
2022/05/17 01:48:51;;;;;;;7.78;4.00;;;14.20;99.90;;;;;;4974722;28;20057;-65
2022/05/17 01:51:19;;;;;;;8.05;3.67;;;14.10;99.90;;;;;;4973424;28;20162;-61
2022/05/17 01:53:46;;;;;;;8.73;4.03;;;14.00;99.90;;;;;;4973738;28;20058;-61
2022/05/17 01:56:13;;;;;;;9.75;4.05;;;14.00;99.90;;;;;;4955495;28;20052;-61
2022/05/17 01:58:40;;;;;;;;;;;13.90;99.90;;;;;;4957821;28;20038;-61
2022/05/17 02:01:09;;;;;;;5.70;3.15;;;13.80;99.90;;;;;;4973782;28;20150;-63
2022/05/17 02:03:37;;;;;;;11.75;3.97;;;13.80;99.90;;;;;;4973411;28;20070;-61
2022/05/17 02:06:03;;;;;;;5.90;3.47;;;13.70;99.90;;;;;;4973019;28;20113;-62
2022/05/17 02:08:30;;;;;;;7.20;3.65;;;13.70;99.90;;;;;;4978350;28;20049;-62
2022/05/17 02:10:57;;;;;;;;;;;13.70;99.90;;;;;;4978582;28;20242;-61
2022/05/17 02:13:25;;;;;;;10.40;3.67;;;13.60;99.90;;;;;;4977804;28;19928;-62
2022/05/17 02:15:51;;;;;;;12.60;4.15;;;13.60;99.90;;;;;;4975180;28;20549;-61
2022/05/17 02:18:18;;;;;;;;;;;13.50;99.90;;;;;;4978652;28;20493;-62
2022/05/17 02:20:45;;;;;;;9.20;4.32;;;13.50;99.90;;;;;;4978615;28;19932;-61
2022/05/17 02:23:12;;;;;;;;;;;13.50;99.90;;;;;;4978836;28;20050;-61
2022/05/17 02:25:39;;;;;;;12.00;3.53;;;13.40;99.90;;;;;;4977459;28;19925;-61
2022/05/17 02:28:08;;;;;;;9.00;3.78;;;13.40;99.90;;;;;;4977353;28;20038;-62
2022/05/17 02:30:35;;;;;;;5.00;3.30;;;13.30;99.90;;;;;;4978435;28;20444;-61
2022/05/17 02:33:04;;;;;;;7.13;3.60;;;13.30;99.90;;;;;;4978041;28;20054;-62
2022/05/17 02:35:31;;;;;;;4.10;3.05;;;13.30;99.90;;;;;;4978456;28;20058;-61
2022/05/17 02:37:58;;;;;;;;;;;13.30;99.90;;;;;;4976916;28;20054;-61
2022/05/17 02:40:24;;;;;;;10.63;3.67;;;13.30;99.90;;;;;;4976721;28;20566;-62
2022/05/17 02:42:51;;;;;;;;;;;13.30;99.90;;;;;;4973589;28;20046;-61
2022/05/17 02:45:18;;;;;;;8.63;3.67;;;13.20;99.90;;;;;;4973931;28;20025;-62
2022/05/17 02:47:46;;;;;;;4.22;3.47;;;13.20;99.90;;;;;;4958627;28;20066;-62
2022/05/17 02:50:12;;;;;;;;;;;13.10;99.90;;;;;;4959422;28;20043;-61
2022/05/17 02:52:39;;;;;;;4.60;2.72;;;13.10;99.90;;;;;;4960697;28;19925;-62
2022/05/17 02:55:07;;;;;;;9.60;3.60;;;13.10;99.90;;;;;;4975882;28;20050;-62
2022/05/17 02:57:36;;;;;;;11.38;3.60;;;13.00;99.90;;;;;;4976175;28;20042;-62
2022/05/17 03:00:08;;;;;;;5.00;3.03;;;13.00;99.90;;;;;;4977098;28;20715;-61
2022/05/17 03:02:35;;;;;;;5.93;3.25;;;12.90;99.90;;;;;;4977505;28;20776;-61
2022/05/17 03:05:02;;;;;;;7.75;3.75;;;12.90;99.90;;;;;;4975786;28;20038;-62
2022/05/17 03:07:28;;;;;;;;;;;12.90;99.90;;;;;;4978100;28;20042;-61
2022/05/17 03:09:55;;;;;;;6.05;3.25;;;12.90;99.90;;;;;;4977881;28;19952;-62
2022/05/17 03:12:22;;;;;;;;;;;12.90;99.90;;;;;;4976970;28;20057;-62
2022/05/17 03:14:49;;;;;;;8.07;3.33;;;12.80;99.90;;;;;;4976852;28;20327;-62
2022/05/17 03:17:17;;;;;;;;;;;12.80;99.90;;;;;;4975524;28;20049;-61
2022/05/17 03:19:44;;;;;;;3.85;2.47;;;12.80;99.90;;;;;;4976420;28;19933;-61
2022/05/17 03:22:11;;;;;;;4.55;2.92;;;12.70;99.90;;;;;;4975073;28;20042;-62
2022/05/17 03:24:39;;;;;;;6.18;3.13;;;12.70;99.90;;;;;;4975801;28;20077;-61
2022/05/17 03:27:25;;;;;;;8.60;3.33;;;12.70;99.90;;;;;;4975708;28;20042;-61
2022/05/17 03:29:52;;;;;;;;;;;12.70;99.90;;;;;;4977372;28;20049;-61
2022/05/17 03:32:20;;;;;;;8.93;3.87;;;12.60;99.90;;;;;;4975519;28;19925;-62
2022/05/17 03:34:47;;;;;;;4.22;3.15;;;12.50;99.90;;;;;;4977395;28;20085;-61
2022/05/17 03:37:14;;;;;;;7.60;3.60;;;12.60;99.90;;;;;;4976190;28;20054;-61
2022/05/17 03:39:41;;;;;;;10.63;3.45;;;12.50;99.90;;;;;;4976908;28;20057;-61
2022/05/17 03:42:09;;;;;;;5.95;3.00;;;12.50;99.90;;;;;;4976254;28;20034;-61
2022/05/17 03:44:37;;;;;;;6.97;3.80;;;12.50;99.90;;;;;;4967684;28;20552;-62
2022/05/17 03:47:06;;;;;;;12.45;3.72;;;12.50;99.90;;;;;;4975302;28;20046;-62
2022/05/17 03:49:34;;;;;;;11.55;4.13;;;12.50;99.90;;;;;;4975145;28;20045;-61
2022/05/17 03:52:02;;;;;;;6.88;3.15;;;12.50;99.90;;;;;;4976704;28;20061;-61
2022/05/17 03:54:29;;;;;;;15.27;3.70;;;12.40;99.90;;;;;;4969661;28;20085;-61
2022/05/17 03:56:56;;;;;;;;;;;12.40;99.90;;;;;;4956321;28;20042;-62
2022/05/17 03:59:24;;;;;;;14.25;3.65;;;12.40;99.90;;;;;;4965777;28;19953;-61
2022/05/17 04:01:50;;;;;;;9.65;3.60;;;12.40;99.90;;;;;;4975143;28;20081;-62
2022/05/17 04:04:18;;;;;;;4.43;3.63;;;12.40;99.90;;;;;;4975310;28;20829;-62
2022/05/17 04:06:46;;;;;;;4.55;3.10;;;12.40;99.90;;;;;;4976376;28;20046;-61
2022/05/17 04:09:13;;;;;;;4.88;2.88;;;12.40;99.90;;;;;;4976725;28;20050;-62
2022/05/17 04:11:40;;;;;;;11.13;3.45;;;12.40;99.90;;;;;;4974654;28;20061;-61
2022/05/17 04:14:08;;;;;;;9.52;3.70;;;12.40;99.90;;;;;;4975617;28;20956;-62
2022/05/17 04:16:36;;;;;;;7.13;3.17;;;12.40;99.90;;;;;;4972174;28;20034;-62
2022/05/17 04:19:05;;;;;;;7.70;4.60;;;12.30;99.90;;;;;;4976408;28;20038;-62
2022/05/17 04:21:33;;;;;;;8.90;3.35;;;12.40;99.90;;;;;;4974474;28;20038;-62
2022/05/17 04:24:00;;;;;;;4.57;3.22;;;12.40;99.90;;;;;;4974814;28;20049;-62
2022/05/17 04:26:27;;;;;;;8.18;3.67;;;12.40;99.90;;;;;;4975020;28;20042;-62
2022/05/17 04:28:55;;;;;;;6.57;3.13;;;12.40;99.90;;;;;;4974431;28;20532;-62
2022/05/17 04:31:22;;;;;;;7.25;3.55;;;12.50;99.90;;;;;;4975019;28;20054;-61
2022/05/17 04:33:50;;;;;;;6.40;3.28;;;12.50;99.90;;;;;;4976076;28;20042;-62
2022/05/17 04:36:17;;;;;;;5.78;3.30;;;12.50;99.90;;;;;;4976144;28;20817;-62
2022/05/17 04:38:44;;;;;;;3.60;2.92;;;12.50;99.90;;;;;;4974171;28;20073;-62
2022/05/17 04:41:11;;;;;;;9.73;3.60;;;12.50;99.90;;;;;;4974207;28;20057;-62
2022/05/17 04:43:38;;;;;;;7.07;4.10;;;12.60;99.90;;;;;;4973597;28;20058;-61
2022/05/17 04:46:07;;;;;;;8.07;3.80;;;12.60;99.90;;;;;;4971751;28;20097;-62
2022/05/17 04:48:34;;;;;;;6.85;3.38;;;12.70;99.90;;;;;;4975967;28;20113;-62
2022/05/17 04:51:09;;;;;;;7.55;3.65;;;12.70;99.90;;;;;;4975361;28;20066;-62
2022/05/17 04:53:38;;;;;;;3.92;2.70;;;12.80;99.90;;;;;;4970669;28;20039;-61
2022/05/17 04:56:06;;;;;;;4.80;3.05;;;12.80;99.90;;;;;;4973460;28;20264;-62
2022/05/17 04:58:33;;;;;;;5.18;2.97;;;12.90;99.90;;;;;;4974368;28;20065;-61
2022/05/17 05:01:01;;;;;;;5.47;2.90;;;13.00;99.90;;;;;;4975616;28;20034;-62
2022/05/17 05:03:29;;;;;;;11.98;3.30;;;13.00;99.90;;;;;;4975504;28;20053;-61
2022/05/17 05:05:55;;;;;;;12.07;3.20;;;13.00;99.90;;;;;;4975184;28;20122;-61
2022/05/17 05:08:24;;;;;;;10.95;3.85;;;13.10;99.90;;;;;;4975070;28;20073;-53
2022/05/17 05:10:54;;;;;;;6.93;2.72;;;13.20;99.90;;;;;;4975666;28;20042;-50
2022/05/17 05:13:23;;;;;;;10.48;3.85;;;13.20;99.90;;;;;;4974030;28;20050;-54
2022/05/17 05:15:51;;;;;;;9.65;2.95;;;13.30;99.90;;;;;;4975552;28;20042;-52
2022/05/17 05:18:18;;;;;;;6.35;3.35;;;13.40;99.90;;;;;;4974595;28;20121;-51
2022/05/17 05:20:45;;;;;;;4.25;2.72;;;13.50;99.90;;;;;;4975782;28;20050;-53
2022/05/17 05:23:12;;;;;;;;;;;13.60;99.90;;;;;;4974091;28;20058;-53
2022/05/17 05:25:39;;;;;;;8.43;2.92;;;13.60;99.90;;;;;;4975388;28;19932;-51
2022/05/17 05:28:09;;;;;;;5.93;2.88;;;13.70;99.90;;;;;;4974714;28;20378;-50
2022/05/17 05:30:36;;;;;;;7.78;3.25;;;13.80;99.90;;;;;;4973903;28;20042;-50
2022/05/17 05:33:03;;;;;;;4.00;2.80;;;13.80;99.90;;;;;;4972724;28;20076;-52
2022/05/17 05:35:32;;;;;;;10.52;3.30;;;13.90;99.90;;;;;;4972620;28;20038;-56
2022/05/17 05:37:59;;;;;;;6.93;2.83;;;14.00;99.90;;;;;;4972447;28;20056;-53
2022/05/17 05:40:26;;;;;;;9.52;3.58;;;14.10;99.90;;;;;;4972141;28;20043;-53
2022/05/17 05:42:53;;;;;;;9.43;2.92;;;14.20;99.90;;;;;;4972451;28;20050;-53
2022/05/17 05:45:21;;;;;;;4.43;2.85;;;14.30;99.90;;;;;;4971544;28;20038;-53
2022/05/17 05:47:49;;;;;;;7.85;2.70;;;14.40;99.90;;;;;;4973812;28;20198;-53
2022/05/17 05:50:16;;;;;;;6.78;3.13;;;14.40;99.90;;;;;;4972820;28;20815;-52
2022/05/17 05:52:43;;;;;;;6.03;3.25;;;14.50;99.90;;;;;;4957509;28;20054;-50
2022/05/17 05:55:21;;;;;;;;;;;14.60;99.90;;;;;;4962283;28;20043;-52
2022/05/17 05:57:49;;;;;;;4.85;3.67;;;14.70;99.90;;;;;;4955312;28;19926;-52
2022/05/17 06:00:18;;;;;;;5.35;2.85;;;14.80;99.90;;;;;;4971638;28;20138;-49
2022/05/17 06:02:45;;;;;;;6.30;2.63;;;14.80;99.90;;;;;;4974636;28;20054;-52
2022/05/17 06:05:12;;;;;;;;;;;15.00;99.90;;;;;;4975552;28;20038;-49
2022/05/17 06:07:39;;;;;;;5.93;2.47;;;15.00;99.90;;;;;;4974559;28;19925;-51
2022/05/17 06:10:07;;;;;;;4.25;3.08;;;15.10;99.90;;;;;;4973123;28;20050;-52
2022/05/17 06:12:34;;;;;;;10.35;2.75;;;15.30;99.90;;;;;;4974516;28;20855;-51
2022/05/17 06:15:01;;;;;;;;;;;15.40;99.90;;;;;;4973868;28;20054;-52
2022/05/17 06:17:28;;;;;;;3.88;2.65;;;15.50;99.90;;;;;;4985122;28;20001;-52
2022/05/17 06:19:56;;;;;;;12.25;3.85;;;15.60;99.90;;;;;;4974983;28;20046;-53
2022/05/17 06:22:24;;;;;;;6.70;2.58;;;15.70;99.90;;;;;;4972729;28;20054;-52
2022/05/17 06:24:51;;;;;;;6.30;2.40;;;15.80;99.90;;;;;;4973076;28;20046;-52
2022/05/17 06:27:23;;;;;;;11.38;3.58;;;15.90;99.90;;;;;;4973708;28;20393;-51
2022/05/17 06:29:52;;;;;;;7.80;2.95;;;16.10;99.90;;;;;;4972477;28;20181;-51
2022/05/17 06:32:19;;;;;;;9.25;3.05;;;16.20;99.90;;;;;;4973270;28;20125;-51
2022/05/17 06:34:47;;;;;;;6.30;2.97;;;16.30;99.90;;;;;;4974451;28;20034;-50
2022/05/17 06:37:15;;;;;;;9.13;3.03;;;16.40;99.90;;;;;;4974476;28;20074;-50
2022/05/17 06:39:45;;;;;;;3.75;2.58;;;16.50;99.90;;;;;;4974183;28;20667;-48
2022/05/17 06:42:13;;;;;;;7.57;3.60;;;16.60;99.90;;;;;;4974548;28;20885;-48
2022/05/17 06:44:41;;;;;;;9.18;2.85;;;16.80;99.90;;;;;;4973057;28;20038;-51
2022/05/17 06:47:08;;;;;;;6.95;3.10;;;16.90;99.90;;;;;;4964255;28;20294;-49
2022/05/17 06:49:40;;;;;;;9.55;2.67;;;16.90;99.90;;;;;;4973542;28;20038;-51
2022/05/17 06:52:08;;;;;;;6.10;2.90;;;17.00;99.90;;;;;;4972672;28;20050;-51
2022/05/17 06:54:43;;;;;;;7.97;2.47;;;17.10;99.90;;;;;;4973057;28;20327;-52
2022/05/17 06:57:14;;;;;;;8.50;3.95;;;17.20;99.90;;;;;;4973366;28;20073;-49
2022/05/17 06:59:43;;;;;;;9.68;3.40;;;17.40;99.90;;;;;;4976133;28;20937;-52
2022/05/17 07:02:10;;;;;;;10.95;2.75;;;17.50;99.90;;;;;;4975707;28;20050;-50
2022/05/17 07:04:38;;;;;;;12.55;3.78;;;17.70;99.90;;;;;;4976509;28;20082;-52
2022/05/17 07:07:06;;;;;;;13.43;3.60;;;17.80;99.90;;;;;;4975423;28;20556;-52
2022/05/17 07:09:34;;;;;;;12.50;3.75;;;17.90;99.90;;;;;;4975797;28;20655;-57
2022/05/17 07:14:50;;;;;;;4.85;3.42;;;18.20;99.90;;;;;;4975397;28;20050;-55
2022/05/17 07:17:21;;;;;;;6.95;3.30;;;18.40;99.90;;;;;;4975647;28;20065;-53
2022/05/17 07:19:49;;;;;;;6.90;4.13;;;18.50;99.90;;;;;;4974778;28;20042;-60
2022/05/17 07:22:16;;;;;;;7.13;3.53;;;18.60;99.90;;;;;;4976459;28;20112;-57
2022/05/17 07:24:45;;;;;;;7.85;3.65;;;18.80;99.90;;;;;;4977601;28;20712;-55
2022/05/17 07:27:14;;;;;;;13.18;4.63;;;18.90;99.90;;;;;;4977406;28;20042;-56
2022/05/17 07:29:47;;;;;;;12.02;4.57;;;19.00;99.90;;;;;;4977302;28;20046;-53
2022/05/17 07:32:14;;;;;;;7.55;3.72;;;19.10;99.90;;;;;;4977054;28;20513;-54
2022/05/17 07:34:41;;;;;;;7.65;3.70;;;19.20;99.90;;;;;;4959241;28;20054;-58
2022/05/17 07:37:09;;;;;;;6.68;3.58;;;19.30;99.90;;;;;;4955809;28;20046;-61
2022/05/17 07:39:36;;;;;;;7.85;3.80;;;19.40;99.90;;;;;;4958056;28;20050;-61
2022/05/17 07:42:05;;;;;;;16.35;4.22;;;19.40;99.90;;;;;;4975247;28;20065;-59
2022/05/17 07:44:34;;;;;;;5.57;4.50;;;19.50;99.90;;;;;;4977231;28;20042;-59
2022/05/17 07:47:02;;;;;;;10.50;4.75;;;19.60;99.90;;;;;;4971687;28;20046;-57
2022/05/17 07:49:31;;;;;;;5.90;4.28;;;19.70;99.90;;;;;;4975147;28;20056;-56
2022/05/17 07:51:58;;;;;;;12.88;4.72;;;19.80;99.90;;;;;;4976182;28;20053;-56
2022/05/17 07:54:25;;;;;;;6.50;3.35;;;19.90;99.90;;;;;;4971784;28;20045;-57
2022/05/17 07:56:51;;;;;;;6.03;3.88;;;20.00;99.90;;;;;;4976474;28;20050;-56
2022/05/17 07:59:18;;;;;;;10.88;4.15;;;20.10;99.90;;;;;;4966103;28;20152;-56
2022/05/17 08:01:46;;;;;;;9.80;4.07;;;20.20;99.90;;;;;;4957449;28;20046;-57
2022/05/17 08:04:12;;;;;;;7.68;3.80;;;20.40;99.90;;;;;;4956782;28;20047;-56
2022/05/17 08:06:40;;;;;;;7.80;4.45;;;20.70;99.90;;;;;;4955669;28;20690;-56
2022/05/17 08:09:07;;;;;;;11.85;3.60;;;21.10;99.90;;;;;;4956842;28;20046;-56
2022/05/17 08:11:34;;;;;;;8.80;4.05;;;21.60;99.90;;;;;;4956945;28;20053;-61
2022/05/17 08:14:01;;;;;;;5.78;3.70;;;21.90;99.90;;;;;;4956481;28;20054;-56
2022/05/17 08:16:43;;;;;;;6.85;2.95;;;22.20;99.90;;;;;;4967350;28;20096;-57
2022/05/17 08:19:11;;;;;;;8.70;4.03;;;22.50;99.90;;;;;;4976464;28;20046;-51
2022/05/17 08:21:39;;;;;;;5.75;3.50;;;22.70;99.90;;;;;;4973611;28;20144;-55
2022/05/17 08:24:07;;;;;;;8.20;3.80;;;23.00;99.90;;;;;;4975312;28;20412;-56
2022/05/17 08:29:19;;;;;;;11.18;3.78;;;23.30;99.90;;;;;;4974817;28;20520;-56
2022/05/17 08:33:14;;;;;;;5.50;3.25;;;23.40;99.90;;;;;;4975037;28;20042;-55
2022/05/17 08:34:33;;;;;;;6.93;3.80;;;23.40;99.90;;;;;;4976279;28;20053;-55
2022/05/17 08:37:00;;;;;;;10.63;4.03;;;23.60;99.90;;;;;;4974604;28;20075;-55
2022/05/17 08:39:28;;;;;;;5.60;4.25;;;23.70;99.90;;;;;;4976738;28;20126;-55
2022/05/17 08:42:39;;;;;;;7.07;2.88;;;23.80;99.90;;;;;;4957665;28;20056;-55
2022/05/17 08:45:12;;;;;;;8.82;3.50;;;23.80;99.90;;;;;;4955888;28;20070;-56
2022/05/17 08:47:44;;;;;;;6.28;3.78;;;24.00;99.90;;;;;;4962629;28;20042;-59
2022/05/17 08:50:32;;;;;;;9.00;3.70;;;24.10;99.00;;;;;;4974597;28;20061;-54
2022/05/17 08:52:59;;;;;;;8.50;2.70;;;24.20;99.10;;;;;;4974178;28;20038;-53
2022/05/17 08:55:40;;;;;;;15.20;2.97;;;24.40;97.60;;;;;;4969332;28;20079;-54
2022/05/17 08:58:27;;;;;;;7.10;2.75;;;24.50;95.90;;;;;;4975752;28;20633;-53
2022/05/17 09:01:06;;;;;;;7.03;3.03;;;24.40;94.60;;;;;;4955488;28;20046;-53
2022/05/17 09:04:11;;;;;;;4.82;2.65;;;24.50;93.90;;;;;;4954626;28;20066;-53
2022/05/17 09:06:58;;;;;;;6.97;3.10;;;24.60;95.20;;;;;;4954806;28;20077;-58
2022/05/17 09:09:31;;;;;;;5.75;3.53;;;24.70;93.20;;;;;;4971096;28;20616;-57
2022/05/17 09:12:14;;;;;;;11.27;2.55;;;24.80;91.90;;;;;;4971809;28;20548;-58
2022/05/17 09:14:47;;;;;;;2.78;1.98;;;24.80;89.30;;;;;;4956758;28;20554;-57
2022/05/17 09:17:19;;;;;;;5.28;2.28;;;24.60;87.10;;;;;;4968082;28;20123;-57
2022/05/17 09:19:49;;;;;;;13.75;3.08;;;24.70;86.60;;;;;;4974415;28;20054;-57
2022/05/17 09:22:16;;;;;;;6.30;2.10;;;24.70;89.10;;;;;;4974956;28;20054;-57
2022/05/17 09:24:45;;;;;;;9.27;2.35;;;24.80;83.70;;;;;;4974468;28;20081;-66
2022/05/17 09:27:25;;;;;;;6.18;2.35;;;24.80;80.90;;;;;;4974453;28;20046;-62
2022/05/17 09:30:07;;;;;;;7.57;2.50;;;24.80;79.90;;;;;;4974846;28;20487;-62
2022/05/17 09:32:41;;;;;;;7.13;2.70;;;24.90;82.30;;;;;;4973910;28;20042;-62
2022/05/17 09:35:17;;;;;;;4.95;2.20;;;24.90;82.40;;;;;;4974476;28;20054;-63
2022/05/17 09:37:50;;;;;;;11.30;3.58;;;25.10;81.50;;;;;;4973830;28;20054;-62
2022/05/17 09:40:35;;;;;;;7.78;2.88;;;25.20;80.90;;;;;;4970126;28;20137;-62
2022/05/17 09:43:05;;;;;;;7.15;2.60;;;25.30;81.00;;;;;;4955723;28;20138;-58
2022/05/17 09:45:58;;;;;;;11.27;2.70;;;25.30;78.80;;;;;;4955284;28;20618;-58
2022/05/17 09:48:28;;;;;;;8.90;2.30;;;25.40;74.50;;;;;;4961078;28;20689;-58
2022/05/17 09:53:48;;;;;;;3.47;1.80;;;25.30;72.30;;;;;;4975147;28;20042;-58
2022/05/17 09:56:16;;;;;;;4.85;2.45;;;25.40;72.50;;;;;;4956200;28;20054;-58
2022/05/17 09:58:45;;;;;;;4.75;2.67;;;25.40;70.60;;;;;;4958290;28;20050;-60
2022/05/17 10:01:25;;;;;;;6.03;2.00;;;25.30;72.00;;;;;;4957685;28;20471;-59
2022/05/17 10:04:12;;;;;;;5.22;2.38;;;25.40;70.90;;;;;;4974490;28;20043;-58
2022/05/17 10:06:42;;;;;;;4.18;1.80;;;25.50;71.10;;;;;;4972692;28;20093;-59
2022/05/17 10:09:33;;;;;;;6.63;3.00;;;25.60;72.00;;;;;;4973186;28;20038;-59
2022/05/17 10:12:08;;;;;;;3.00;2.17;;;25.80;70.80;;;;;;4974413;28;20051;-57
2022/05/17 10:14:44;;;;;;;6.22;1.90;;;25.80;65.20;;;;;;4975335;28;20046;-58
2022/05/17 10:17:35;;;;;;;6.03;2.67;;;25.60;65.20;;;;;;4974246;28;20057;-59
2022/05/17 10:20:06;;;;;;;2.60;1.58;;;25.60;65.80;;;;;;4975265;28;20061;-59
2022/05/17 10:23:06;;;;;;;4.03;1.90;;;25.60;68.00;;;;;;4975008;28;20070;-58
2022/05/17 10:26:01;;;;;;;5.43;1.83;;;25.70;63.90;;;;;;4974320;28;20050;-59
2022/05/17 10:28:48;;;;;;;4.85;2.03;;;25.70;58.50;;;;;;4958818;28;20046;-59
2022/05/17 10:31:20;;;;;;;5.15;2.03;;;25.70;64.70;;;;;;4979032;28;20042;-59
2022/05/17 10:34:15;;;;;;;4.22;2.25;;;25.50;65.70;;;;;;4976924;28;20494;-59
2022/05/17 10:36:50;;;;;;;4.25;1.58;;;25.50;62.40;;;;;;4977934;28;20058;-59
2022/05/17 10:39:30;;;;;;;6.88;1.60;;;25.50;56.50;;;;;;4976909;28;20061;-59
2022/05/17 10:41:58;;;;;;;3.95;1.85;;;25.50;59.60;;;;;;4976710;28;20054;-59
2022/05/17 10:44:37;;;;;;;2.65;1.70;;;25.60;61.90;;;;;;4977813;28;20058;-59
2022/05/17 10:47:13;;;;;;;6.78;1.65;;;25.60;60.30;;;;;;4977399;28;20541;-59
2022/05/17 10:50:09;;;;;;;2.90;1.20;;;25.50;60.90;;;;;;4977274;28;20042;-60
2022/05/17 10:52:58;;;;;;;5.35;2.20;;;25.40;57.30;;;;;;4976349;28;20058;-59
2022/05/17 10:55:46;;;;;;;4.57;1.77;;;25.40;59.70;;;;;;4972092;28;20047;-59
2022/05/17 10:58:29;;;;;;;6.20;2.28;;;25.50;58.90;;;;;;4976714;28;20058;-58
2022/05/17 11:01:02;;;;;;;5.15;2.25;;;25.50;59.50;;;;;;4973047;28;20038;-58
2022/05/17 11:03:35;;;;;;;4.97;1.40;;;25.60;59.30;;;;;;4958374;28;20494;-59
2022/05/17 11:06:26;;;;;;;2.75;1.60;;;25.70;58.70;;;;;;4958628;28;20053;-59
2022/05/17 11:09:21;;;;;;;3.67;1.65;;;25.80;56.50;;;;;;4973314;28;20057;-59
2022/05/17 11:12:08;;;;;;;4.13;1.80;;;25.80;57.40;;;;;;4957908;28;20121;-59
2022/05/17 11:14:53;;;;;;;5.47;2.15;;;25.70;58.00;;;;;;4973604;28;20054;-59
2022/05/17 11:17:55;;;;;;;12.73;2.83;;;25.70;59.20;;;;;;4987474;28;20600;-59
2022/05/17 11:20:40;;;;;;;5.20;1.77;;;25.70;58.00;;;;;;4968203;28;20124;-58
2022/05/17 11:23:28;;;;;;;6.78;2.35;;;25.60;58.40;;;;;;4976347;28;20057;-59
2022/05/17 11:26:43;;;;;;;4.57;1.67;;;25.50;58.60;;;;;;4976944;28;20836;-59
2022/05/17 11:29:18;;;;;;;4.60;1.80;;;25.40;59.80;;;;;;4983698;28;20057;-59
2022/05/17 11:32:14;;;;;;;7.00;1.90;;;25.50;58.70;;;;;;4976680;28;20066;-59
2022/05/17 11:34:45;;;;;;;7.63;2.80;;;25.50;58.10;;;;;;4977619;28;20049;-60
2022/05/17 11:37:34;;;;;;;8.10;1.98;;;25.50;59.20;;;;;;4977717;28;20053;-59
2022/05/17 11:40:04;;;;;;;2.45;1.30;;;25.50;58.70;;;;;;4975870;28;20050;-60
2022/05/17 11:42:33;;;;;;;6.13;2.08;;;25.60;57.60;;;;;;4976310;28;20050;-59
2022/05/17 11:45:21;;;;;;;9.40;2.72;;;25.60;58.70;;;;;;4977145;28;20042;-58
2022/05/17 11:47:51;;;;;;;3.83;1.98;;;25.60;59.60;;;;;;4977227;28;20544;-58
2022/05/17 11:50:22;;;;;;;7.68;2.50;;;25.70;59.20;;;;;;4976659;28;20117;-59
2022/05/17 11:53:22;;;;;;;8.68;2.20;;;25.80;59.20;;;;;;4974605;28;20503;-58
2022/05/17 11:56:32;;;;;;;4.60;2.15;;;25.80;59.80;;;;;;4976533;28;20061;-59
2022/05/17 11:59:08;;;;;;;5.35;2.00;;;25.90;59.50;;;;;;4975780;28;20204;-59
2022/05/17 12:01:37;;;;;;;6.75;2.05;;;26.00;61.40;;;;;;4977415;28;20054;-60
2022/05/17 12:04:37;;;;;;;6.63;2.33;;;26.10;61.10;;;;;;4977369;28;20049;-59
2022/05/17 12:07:22;;;;;;;8.82;2.60;;;26.30;62.00;;;;;;4976684;28;20053;-58
2022/05/17 12:09:52;;;;;;;5.70;2.25;;;26.30;59.00;;;;;;4976915;28;20545;-58
2022/05/17 12:12:38;;;;;;;3.80;1.98;;;26.30;58.80;;;;;;4976594;28;20050;-59
2022/05/17 12:15:23;;;;;;;6.00;2.25;;;26.40;59.50;;;;;;4976022;28;20147;-59
2022/05/17 12:18:12;;;;;;;4.85;1.85;;;26.50;59.80;;;;;;4973948;28;20410;-59
2022/05/17 12:21:04;;;;;;;5.30;2.20;;;26.60;57.30;;;;;;4975814;28;20049;-59
2022/05/17 12:23:39;;;;;;;3.90;1.88;;;26.70;57.20;;;;;;4976389;28;20049;-62
2022/05/17 12:26:21;;;;;;;8.88;2.88;;;26.70;59.90;;;;;;4976917;28;20057;-60
2022/05/17 12:28:53;;;;;;;4.88;1.95;;;26.70;58.00;;;;;;4976161;28;20043;-59
2022/05/17 12:31:25;;;;;;;3.03;2.30;;;26.80;57.90;;;;;;4976083;28;20047;-60
2022/05/17 12:33:55;;;;;;;16.48;3.38;;;27.10;57.40;;;;;;4975473;28;20264;-60
2022/05/17 12:36:30;;;;;;;4.28;2.25;;;27.30;59.00;;;;;;4975173;28;20134;-58
2022/05/17 12:44:55;;;;;;;3.35;1.92;;;27.40;57.70;;;;;;4977058;28;20755;-58
2022/05/17 12:47:34;;;;;;;7.38;2.20;;;27.50;57.40;;;;;;4975548;28;20045;-58
2022/05/17 12:50:06;;;;;;;7.22;3.15;;;27.60;57.70;;;;;;4975428;28;20836;-59
2022/05/17 12:52:36;;;;;;;7.32;2.53;;;27.70;57.10;;;;;;4973805;28;20142;-58
2022/05/17 12:55:11;;;;;;;13.27;2.42;;;27.90;57.10;;;;;;4974841;28;20046;-59
2022/05/17 12:57:39;;;;;;;9.38;2.30;;;27.90;55.80;;;;;;4975819;28;20056;-59
2022/05/17 13:00:23;;;;;;;10.38;3.10;;;27.90;54.80;;;;;;4976383;28;20579;-59
2022/05/17 13:02:56;;;;;;;7.10;2.67;;;27.90;55.20;;;;;;4974457;28;20133;-58
2022/05/17 13:05:43;;;;;;;5.32;2.50;;;27.80;55.40;;;;;;4973444;28;20161;-58
2022/05/17 13:08:20;;;;;;;6.65;2.60;;;27.80;56.70;;;;;;4975505;28;20034;-58
2022/05/17 13:10:59;;;;;;;7.90;2.70;;;27.80;55.10;;;;;;4975942;28;20532;-58
2022/05/17 13:13:27;;;;;;;3.67;2.30;;;27.90;55.00;;;;;;4990614;28;20046;-58
2022/05/17 13:16:02;;;;;;;7.03;2.30;;;28.00;54.60;;;;;;4975514;28;20046;-58
2022/05/17 13:18:35;;;;;;;5.70;1.98;;;28.10;53.70;;;;;;4970783;28;20475;-58
2022/05/17 13:21:09;;;;;;;7.22;2.00;;;28.10;52.50;;;;;;4970841;28;20437;-58
2022/05/17 13:23:37;;;;;;;4.22;2.15;;;28.00;53.70;;;;;;4956591;28;20051;-58
2022/05/17 13:26:06;;;;;;;6.97;2.35;;;28.00;54.20;;;;;;4955610;28;20062;-58
2022/05/17 13:28:33;;;;;;;8.07;2.67;;;28.00;54.50;;;;;;4954970;28;20129;-59
2022/05/17 13:31:18;;;;;;;4.28;2.13;;;28.10;53.90;;;;;;4956064;28;20122;-59
2022/05/17 13:33:56;;;;;;;7.88;2.22;;;28.20;52.70;;;;;;4956545;28;20438;-58